Time;durP1;ratioP1;P1;durP2;ratioP2;P2;SDS_P1;SDS_P2;PMS_P1;PMS_P2;Temp;Humidity;BMP_temperature;BMP_pressure;BME280_temperature;BME280_humidity;BME280_pressure;Samples;Min_cycle;Max_cycle;Signal;HPM_P1;HPM_P2
2022/07/25 00:00:22;;;;;;;7.38;4.30;;;21.20;99.90;;;;;;5015612;28;20045;-89
2022/07/25 00:02:48;;;;;;;7.50;4.25;;;21.30;99.90;;;;;;5013748;28;20438;-89
2022/07/25 00:05:13;;;;;;;8.35;4.40;;;21.20;99.90;;;;;;5005901;28;20049;-90
2022/07/25 00:07:39;;;;;;;7.85;4.78;;;21.30;99.90;;;;;;5020959;28;20467;-90
2022/07/25 00:10:05;;;;;;;6.68;4.50;;;21.20;99.90;;;;;;4998967;28;20049;-90
2022/07/25 00:12:31;;;;;;;7.13;4.47;;;21.20;99.90;;;;;;5020941;28;20084;-90
2022/07/25 00:14:56;;;;;;;7.85;4.60;;;21.20;99.90;;;;;;5031617;28;20057;-88
2022/07/25 00:17:22;;;;;;;7.50;4.80;;;21.20;99.90;;;;;;5009963;28;20060;-88
2022/07/25 00:19:47;;;;;;;7.75;5.60;;;21.10;99.90;;;;;;5007696;28;20057;-88
2022/07/25 00:22:13;;;;;;;7.90;5.25;;;21.10;99.90;;;;;;5001272;28;20126;-88
2022/07/25 00:24:39;;;;;;;8.02;5.80;;;21.10;99.90;;;;;;5009182;28;20057;-88
2022/07/25 00:27:04;;;;;;;9.30;5.93;;;21.10;99.90;;;;;;4994298;28;20041;-89
2022/07/25 00:29:30;;;;;;;8.43;5.95;;;21.10;99.90;;;;;;5010271;28;20056;-89
2022/07/25 00:31:55;;;;;;;8.98;6.00;;;21.10;99.90;;;;;;5027985;28;20038;-89
2022/07/25 00:34:21;;;;;;;8.70;5.30;;;21.10;99.90;;;;;;4993988;28;20037;-89
2022/07/25 00:36:46;;;;;;;9.35;6.03;;;21.00;99.90;;;;;;5011856;28;20045;-89
2022/07/25 00:39:12;;;;;;;9.35;5.72;;;21.00;99.90;;;;;;4982509;28;20103;-89
2022/07/25 00:41:38;;;;;;;9.00;5.95;;;21.00;99.90;;;;;;5009892;28;20049;-88
2022/07/25 00:44:04;;;;;;;8.52;6.20;;;21.00;99.90;;;;;;4995220;28;20057;-89
2022/07/25 00:46:29;;;;;;;8.98;6.60;;;21.00;99.90;;;;;;4994544;28;20052;-89
2022/07/25 00:48:55;;;;;;;9.38;6.20;;;21.00;99.90;;;;;;4997553;28;20045;-88
2022/07/25 00:51:20;;;;;;;9.00;6.43;;;20.90;99.90;;;;;;5018843;28;20042;-88
2022/07/25 00:53:46;;;;;;;8.85;6.18;;;20.90;99.90;;;;;;4997403;28;20092;-88
2022/07/25 00:56:12;;;;;;;9.40;6.43;;;20.90;99.90;;;;;;4993945;28;20084;-88
2022/07/25 00:58:38;;;;;;;9.48;6.40;;;20.90;99.90;;;;;;5007176;28;20125;-88
2022/07/25 01:01:03;;;;;;;7.75;6.03;;;20.80;99.90;;;;;;4977165;28;20049;-89
2022/07/25 01:03:29;;;;;;;10.63;6.60;;;20.80;99.90;;;;;;5012376;28;20037;-88
2022/07/25 01:05:55;;;;;;;9.95;6.93;;;20.70;99.90;;;;;;5010875;28;20081;-89
2022/07/25 01:08:21;;;;;;;10.60;7.22;;;20.80;99.90;;;;;;5031070;28;20045;-89
2022/07/25 01:10:47;;;;;;;9.68;7.13;;;20.70;99.90;;;;;;5011324;28;20186;-88
2022/07/25 01:13:14;;;;;;;10.27;7.28;;;20.70;99.90;;;;;;5013440;28;20049;-88
2022/07/25 01:15:39;;;;;;;10.75;7.97;;;20.70;99.90;;;;;;5027491;28;20061;-89
2022/07/25 01:18:05;;;;;;;9.93;7.78;;;20.70;99.90;;;;;;4980368;28;20037;-90
2022/07/25 01:20:32;;;;;;;9.48;8.30;;;20.70;99.90;;;;;;5031814;28;20099;-88
2022/07/25 01:22:58;;;;;;;9.85;8.40;;;20.60;99.90;;;;;;4996866;28;20449;-89
2022/07/25 01:25:25;;;;;;;11.27;8.32;;;20.60;99.90;;;;;;5013407;28;20045;-88
2022/07/25 01:27:52;;;;;;;10.98;8.98;;;20.70;99.90;;;;;;4995262;28;20033;-88
2022/07/25 01:30:19;;;;;;;10.82;9.27;;;20.60;99.90;;;;;;5009213;28;20081;-88
2022/07/25 01:32:46;;;;;;;11.30;9.35;;;20.60;99.90;;;;;;5033798;28;20049;-88
2022/07/25 01:35:13;;;;;;;11.40;9.15;;;20.60;99.90;;;;;;5030713;28;20490;-88
2022/07/25 01:37:39;;;;;;;11.65;9.77;;;20.60;99.90;;;;;;5031643;28;20495;-88
2022/07/25 01:40:05;;;;;;;12.63;9.50;;;20.60;99.90;;;;;;5000161;28;20222;-89
2022/07/25 01:42:31;;;;;;;11.18;9.75;;;20.50;99.90;;;;;;4994091;28;20454;-89
2022/07/25 01:44:57;;;;;;;12.50;10.10;;;20.60;99.90;;;;;;5020889;28;20042;-88
2022/07/25 01:47:23;;;;;;;13.10;9.95;;;20.50;99.90;;;;;;5015464;28;20038;-88
2022/07/25 01:49:48;;;;;;;13.90;9.82;;;20.50;99.90;;;;;;5011182;28;20054;-88
2022/07/25 01:52:14;;;;;;;12.55;10.50;;;20.50;99.90;;;;;;5014630;28;20278;-89
2022/07/25 01:54:40;;;;;;;12.00;10.30;;;20.50;99.90;;;;;;5004158;28;20390;-88
2022/07/25 01:57:07;;;;;;;10.93;9.75;;;20.50;99.90;;;;;;4999315;28;20088;-88
2022/07/25 01:59:37;;;;;;;14.20;11.15;;;20.50;99.90;;;;;;4993926;28;20030;-88
2022/07/25 02:02:02;;;;;;;12.87;10.40;;;20.40;99.90;;;;;;5010822;28;20076;-88
2022/07/25 02:04:28;;;;;;;12.48;11.18;;;20.40;99.90;;;;;;4998905;28;20300;-88
2022/07/25 02:06:54;;;;;;;12.82;10.68;;;20.40;99.90;;;;;;5012616;28;20029;-88
2022/07/25 02:09:19;;;;;;;13.23;11.85;;;20.40;99.90;;;;;;5019723;28;20412;-89
2022/07/25 02:11:45;;;;;;;14.85;11.77;;;20.40;99.90;;;;;;4992176;28;20042;-88
2022/07/25 02:14:10;;;;;;;13.38;11.00;;;20.30;99.90;;;;;;4992887;28;20089;-88
2022/07/25 02:16:36;;;;;;;12.95;11.50;;;20.30;99.90;;;;;;5030939;28;20434;-88
2022/07/25 02:19:02;;;;;;;14.05;11.15;;;20.30;99.90;;;;;;5027564;28;20237;-87
2022/07/25 02:21:28;;;;;;;12.65;11.35;;;20.30;99.90;;;;;;5000082;28;20489;-87
2022/07/25 02:23:53;;;;;;;12.07;10.73;;;20.30;99.90;;;;;;4987228;28;20406;-88
2022/07/25 02:26:19;;;;;;;13.38;11.43;;;20.30;99.90;;;;;;4979166;28;20130;-88
2022/07/25 02:28:44;;;;;;;12.32;11.02;;;20.20;99.90;;;;;;4993249;28;20070;-89
2022/07/25 02:31:10;;;;;;;13.05;11.60;;;20.20;99.90;;;;;;4998212;28;20049;-88
2022/07/25 02:33:36;;;;;;;14.15;12.45;;;20.20;99.90;;;;;;5005693;28;20125;-89
2022/07/25 02:36:01;;;;;;;14.15;12.00;;;20.10;99.90;;;;;;4997127;28;20054;-89
2022/07/25 02:38:27;;;;;;;14.23;12.70;;;20.10;99.90;;;;;;4997049;28;20038;-88
2022/07/25 02:40:53;;;;;;;14.77;13.15;;;20.10;99.90;;;;;;4996693;28;20045;-89
2022/07/25 02:43:19;;;;;;;13.95;12.50;;;20.10;99.90;;;;;;5015924;28;20046;-88
2022/07/25 02:45:45;;;;;;;14.30;12.10;;;20.00;99.90;;;;;;4996755;28;20042;-88
2022/07/25 02:48:12;;;;;;;14.13;12.50;;;20.00;99.90;;;;;;4995842;28;20053;-89
2022/07/25 02:50:37;;;;;;;14.57;12.70;;;20.10;99.90;;;;;;4980614;28;20088;-88
2022/07/25 02:53:03;;;;;;;13.57;12.18;;;20.00;99.90;;;;;;4997729;28;20042;-89
2022/07/25 02:55:30;;;;;;;14.13;12.63;;;20.00;99.90;;;;;;5000305;28;20041;-88
2022/07/25 02:57:55;;;;;;;14.98;12.70;;;20.00;99.90;;;;;;4996790;28;20042;-88
2022/07/25 03:00:21;;;;;;;15.70;13.70;;;20.00;99.90;;;;;;4997078;28;20100;-89
2022/07/25 03:02:47;;;;;;;14.27;12.77;;;20.00;99.90;;;;;;5013631;28;20034;-89
2022/07/25 03:05:14;;;;;;;15.55;13.73;;;20.00;99.90;;;;;;5026262;28;20056;-89
2022/07/25 03:07:41;;;;;;;14.63;13.05;;;20.00;99.90;;;;;;5012701;28;20041;-88
2022/07/25 03:10:08;;;;;;;15.30;13.70;;;19.90;99.90;;;;;;4996583;28;20391;-88
2022/07/25 03:12:34;;;;;;;15.25;13.65;;;19.90;99.90;;;;;;5013813;28;20034;-88
2022/07/25 03:15:00;;;;;;;16.02;13.68;;;19.90;99.90;;;;;;5013323;28;20123;-88
2022/07/25 03:17:29;;;;;;;17.77;14.90;;;19.90;99.90;;;;;;4996519;28;20054;-89
2022/07/25 03:19:55;;;;;;;20.00;16.90;;;19.90;99.90;;;;;;5010101;28;20151;-89
2022/07/25 03:22:22;;;;;;;19.58;15.98;;;19.90;99.90;;;;;;5024366;28;20097;-88
2022/07/25 03:24:48;;;;;;;16.60;14.70;;;20.00;99.90;;;;;;5013489;28;20050;-89
2022/07/25 03:27:13;;;;;;;17.65;14.30;;;19.90;99.90;;;;;;5013675;28;20046;-89
2022/07/25 03:29:39;;;;;;;19.13;15.35;;;19.90;99.90;;;;;;4996227;28;20042;-88
2022/07/25 03:32:05;;;;;;;16.63;14.68;;;19.80;99.90;;;;;;5017022;28;20037;-87
2022/07/25 03:34:31;;;;;;;19.80;15.48;;;19.90;99.90;;;;;;5010940;28;20045;-89
2022/07/25 03:36:57;;;;;;;21.88;15.80;;;19.90;99.90;;;;;;4994760;28;20415;-88
2022/07/25 03:39:23;;;;;;;20.17;16.45;;;19.90;99.90;;;;;;5016476;28;20041;-88
2022/07/25 03:41:49;;;;;;;19.00;15.85;;;19.90;99.90;;;;;;5013807;28;20046;-89
2022/07/25 03:44:15;;;;;;;17.90;15.68;;;19.90;99.90;;;;;;5013373;28;20046;-89
2022/07/25 03:46:41;;;;;;;17.15;15.35;;;19.90;99.90;;;;;;4995246;28;20045;-90
2022/07/25 03:49:06;;;;;;;17.25;15.30;;;19.90;99.90;;;;;;5012568;28;20125;-88
2022/07/25 03:51:32;;;;;;;17.92;15.50;;;19.90;99.90;;;;;;4999486;28;20398;-88
2022/07/25 03:54:00;;;;;;;16.90;15.20;;;19.90;99.90;;;;;;5011915;28;20712;-89
2022/07/25 03:56:27;;;;;;;17.73;15.80;;;19.90;99.90;;;;;;5021248;28;20038;-89
2022/07/25 03:58:53;;;;;;;16.65;14.95;;;19.90;99.90;;;;;;5013100;28;20050;-88
2022/07/25 04:01:19;;;;;;;17.88;15.95;;;19.90;99.90;;;;;;5033420;28;20053;-89
2022/07/25 04:03:45;;;;;;;16.40;14.68;;;20.00;99.90;;;;;;5031037;28;20409;-89
2022/07/25 04:06:10;;;;;;;17.08;15.23;;;19.90;99.90;;;;;;4998900;28;20176;-89
2022/07/25 04:08:36;;;;;;;17.13;15.32;;;19.90;99.90;;;;;;5031624;28;20045;-89
2022/07/25 04:11:01;;;;;;;16.58;14.85;;;19.90;99.90;;;;;;5032389;28;20099;-89
2022/07/25 04:13:27;;;;;;;18.45;15.40;;;19.90;99.90;;;;;;5006434;28;20037;-88
2022/07/25 04:15:52;;;;;;;18.13;16.23;;;19.90;99.90;;;;;;5013795;28;20041;-88
2022/07/25 04:18:18;;;;;;;17.70;15.40;;;19.90;99.90;;;;;;4979397;28;20048;-88
2022/07/25 04:20:44;;;;;;;18.42;16.52;;;19.90;99.90;;;;;;5012842;28;20044;-88
2022/07/25 04:23:09;;;;;;;16.90;15.07;;;20.00;99.90;;;;;;4993631;28;20046;-89
2022/07/25 04:25:35;;;;;;;17.42;15.52;;;20.10;99.90;;;;;;5013016;28;20041;-89
2022/07/25 04:28:00;;;;;;;17.45;15.65;;;20.10;99.90;;;;;;5014801;28;20085;-89
2022/07/25 04:30:26;;;;;;;17.70;15.90;;;20.10;99.90;;;;;;5021853;28;20065;-93
2022/07/25 04:32:52;;;;;;;16.48;14.85;;;20.20;99.90;;;;;;5020827;28;20343;-92
2022/07/25 04:35:17;;;;;;;16.73;14.95;;;20.20;99.90;;;;;;5013405;28;20086;-90
2022/07/25 04:37:43;;;;;;;17.08;15.02;;;20.30;99.90;;;;;;5028490;28;20045;-91
2022/07/25 04:40:10;;;;;;;16.63;14.93;;;20.30;99.90;;;;;;5012446;28;20155;-91
2022/07/25 04:42:35;;;;;;;18.13;14.98;;;20.40;99.90;;;;;;5014410;28;20125;-91
2022/07/25 04:45:01;;;;;;;17.30;14.73;;;20.50;99.90;;;;;;5026078;28;20192;-91
2022/07/25 04:47:27;;;;;;;16.88;15.07;;;20.60;99.90;;;;;;4996115;28;20498;-91
2022/07/25 04:49:54;;;;;;;17.25;15.50;;;20.60;99.90;;;;;;4999216;28;20449;-91
2022/07/25 04:52:19;;;;;;;17.35;15.55;;;20.70;99.90;;;;;;4986649;28;20038;-90
2022/07/25 04:54:45;;;;;;;17.25;15.40;;;20.80;99.90;;;;;;5033279;28;20049;-93
2022/07/25 04:57:11;;;;;;;16.70;15.00;;;20.80;99.90;;;;;;5016297;28;20033;-93
2022/07/25 04:59:36;;;;;;;17.63;15.75;;;20.80;99.90;;;;;;4989257;28;20075;-95
2022/07/25 05:02:02;;;;;;;16.63;14.93;;;20.90;99.90;;;;;;5009868;28;20046;-94
2022/07/25 05:04:28;;;;;;;16.60;14.85;;;21.00;99.90;;;;;;4993992;28;20058;-96
2022/07/25 05:06:54;;;;;;;18.13;15.75;;;21.00;99.90;;;;;;5002103;28;20112;-94
2022/07/25 05:09:19;;;;;;;17.63;15.82;;;21.10;99.90;;;;;;5008364;28;20045;-93
2022/07/25 05:11:45;;;;;;;17.83;15.85;;;21.10;99.90;;;;;;5024129;28;20053;-95
2022/07/25 05:14:10;;;;;;;18.73;16.77;;;21.20;99.90;;;;;;5014350;28;20057;-94
2022/07/25 05:16:36;;;;;;;17.70;15.90;;;21.30;99.90;;;;;;5034794;28;20049;-94
2022/07/25 05:19:02;;;;;;;18.15;16.25;;;21.30;99.90;;;;;;4992497;28;20202;-94
2022/07/25 05:21:28;;;;;;;18.73;16.20;;;21.40;99.90;;;;;;5021360;28;20037;-96
2022/07/25 05:23:54;;;;;;;19.08;17.08;;;21.50;99.90;;;;;;5041933;28;20418;-95
2022/07/25 05:26:20;;;;;;;18.13;16.23;;;21.50;99.90;;;;;;5013439;28;20052;-96
2022/07/25 05:28:45;;;;;;;18.63;16.67;;;21.50;99.90;;;;;;5036763;28;20125;-95
2022/07/25 05:31:11;;;;;;;19.05;17.05;;;21.60;99.90;;;;;;5007860;28;20096;-95
2022/07/25 05:33:36;;;;;;;19.42;17.27;;;21.70;99.90;;;;;;5010890;28;20029;-95
2022/07/25 05:36:03;;;;;;;19.52;17.42;;;21.60;99.90;;;;;;5026046;28;20053;-95
2022/07/25 05:38:29;;;;;;;19.17;17.13;;;21.70;99.90;;;;;;5033673;28;20061;-96
2022/07/25 05:40:55;;;;;;;18.13;16.20;;;21.70;99.90;;;;;;5017352;28;20050;-96
2022/07/25 05:43:21;;;;;;;17.65;15.85;;;21.80;99.90;;;;;;5010882;28;20063;-94
2022/07/25 05:45:46;;;;;;;18.55;16.58;;;21.80;99.90;;;;;;5030432;28;20022;-95
2022/07/25 05:48:13;;;;;;;18.13;16.33;;;21.90;99.90;;;;;;5023393;28;20033;-96
2022/07/25 05:50:39;;;;;;;17.70;15.90;;;22.00;99.90;;;;;;5031977;28;20109;-96
2022/07/25 05:53:05;;;;;;;19.00;17.02;;;22.00;99.90;;;;;;5025924;28;20054;-96
2022/07/25 05:55:31;;;;;;;18.05;16.10;;;22.00;99.90;;;;;;5028281;28;20049;-96
2022/07/25 05:57:56;;;;;;;18.55;16.55;;;22.00;99.90;;;;;;5020279;28;20165;-95
2022/07/25 06:00:22;;;;;;;18.08;15.70;;;22.10;99.90;;;;;;4999911;28;20052;-95
2022/07/25 06:02:48;;;;;;;17.08;15.13;;;22.10;99.90;;;;;;5034828;28;20037;-96
2022/07/25 06:05:14;;;;;;;17.30;15.50;;;22.20;99.90;;;;;;5012928;28;20056;-96
2022/07/25 06:07:40;;;;;;;16.58;14.80;;;22.30;99.90;;;;;;4997071;28;20038;-96
2022/07/25 06:10:06;;;;;;;16.58;14.80;;;22.30;99.90;;;;;;5033577;28;20053;-95
2022/07/25 06:12:32;;;;;;;16.95;14.10;;;22.40;99.90;;;;;;5023937;28;20443;-95
2022/07/25 06:14:59;;;;;;;16.52;14.75;;;22.50;99.90;;;;;;5017315;28;20053;-96
2022/07/25 06:17:25;;;;;;;16.65;14.85;;;22.50;99.90;;;;;;5014859;28;20101;-95
2022/07/25 06:19:50;;;;;;;17.40;14.52;;;22.60;99.90;;;;;;5259785;23;20397;-94
2022/07/25 06:22:18;;;;;;;16.77;14.98;;;22.70;99.90;;;;;;5054701;28;20056;-95
2022/07/25 06:24:44;;;;;;;17.17;14.95;;;22.80;99.90;;;;;;5073495;28;20067;-96
2022/07/25 06:27:10;;;;;;;16.75;14.85;;;22.80;99.90;;;;;;5049682;28;20093;-96
2022/07/25 06:29:39;;;;;;;18.05;15.02;;;22.90;99.90;;;;;;5054756;28;20041;-96
2022/07/25 06:32:05;;;;;;;16.25;14.38;;;23.10;99.90;;;;;;5058847;28;20095;-95
2022/07/25 06:34:30;;;;;;;16.13;14.27;;;23.10;99.90;;;;;;5061765;28;20041;-96
2022/07/25 06:36:56;;;;;;;15.95;14.32;;;23.10;99.90;;;;;;5042430;28;20049;-93
2022/07/25 06:39:22;;;;;;;16.25;14.30;;;23.30;99.90;;;;;;5026764;28;20060;-95
2022/07/25 06:41:48;;;;;;;16.13;14.10;;;23.40;99.90;;;;;;5024135;28;20040;-94
2022/07/25 06:44:14;;;;;;;15.88;13.40;;;23.50;99.90;;;;;;5037392;28;20048;-93
2022/07/25 06:46:39;;;;;;;16.27;13.98;;;23.60;99.90;;;;;;5058885;28;20045;-93
2022/07/25 06:49:05;;;;;;;17.05;13.82;;;23.80;99.90;;;;;;5061248;28;20056;-95
2022/07/25 06:51:31;;;;;;;14.98;13.43;;;23.80;99.90;;;;;;5058545;28;20045;-95
2022/07/25 06:53:57;;;;;;;16.02;14.07;;;23.80;99.90;;;;;;5042094;28;20052;-93
2022/07/25 06:56:23;;;;;;;15.73;13.98;;;23.90;99.90;;;;;;5038299;28;20044;-94
2022/07/25 06:58:49;;;;;;;16.25;14.10;;;24.00;99.90;;;;;;5026100;28;20148;-93
2022/07/25 07:01:15;;;;;;;15.27;13.68;;;24.10;99.90;;;;;;5039378;28;20442;-93
2022/07/25 07:03:41;;;;;;;14.98;13.13;;;24.20;99.90;;;;;;5041675;28;20080;-93
2022/07/25 07:06:08;;;;;;;14.70;12.82;;;24.30;99.90;;;;;;5040841;28;20523;-95
2022/07/25 07:08:34;;;;;;;13.10;11.60;;;24.30;99.90;;;;;;5040202;28;20037;-91
2022/07/25 07:11:00;;;;;;;12.85;11.45;;;24.40;99.90;;;;;;5053608;28;20041;-93
2022/07/25 07:13:26;;;;;;;13.80;11.90;;;24.40;99.90;;;;;;5031674;28;20603;-93
2022/07/25 07:15:51;;;;;;;13.23;11.68;;;24.40;99.90;;;;;;5056264;28;20425;-91
2022/07/25 07:18:18;;;;;;;15.38;11.75;;;24.50;99.90;;;;;;5040928;28;20401;-92
2022/07/25 07:20:44;;;;;;;14.77;12.05;;;24.50;99.90;;;;;;5021176;28;20440;-92
2022/07/25 07:23:10;;;;;;;12.57;11.27;;;24.50;99.90;;;;;;5053628;28;20092;-92
2022/07/25 07:25:36;;;;;;;15.32;11.70;;;24.70;99.90;;;;;;5033942;28;20045;-92
2022/07/25 07:28:02;;;;;;;15.15;11.88;;;24.80;99.90;;;;;;5025222;28;20504;-92
2022/07/25 07:30:28;;;;;;;13.15;11.75;;;24.90;99.90;;;;;;5034124;28;20063;-95
2022/07/25 07:32:54;;;;;;;14.65;12.90;;;25.00;99.90;;;;;;5052281;28;20485;-94
2022/07/25 07:35:19;;;;;;;13.93;12.45;;;25.00;99.90;;;;;;5053849;28;20068;-94
2022/07/25 07:37:46;;;;;;;14.27;12.50;;;25.00;99.90;;;;;;5032296;28;20040;-93
2022/07/25 07:40:13;;;;;;;15.55;13.43;;;25.00;99.90;;;;;;5031492;28;20135;-92
2022/07/25 07:42:41;;;;;;;14.35;12.13;;;24.90;99.90;;;;;;5034497;28;20084;-91
2022/07/25 07:45:18;;;;;;;14.23;12.23;;;24.90;99.90;;;;;;5015756;28;20090;-91
2022/07/25 07:47:46;;;;;;;14.65;11.65;;;24.80;99.90;;;;;;5052184;28;20043;-92
2022/07/25 07:50:14;;;;;;;13.73;11.38;;;24.80;99.90;;;;;;5033352;28;20053;-92
2022/07/25 07:52:40;;;;;;;14.27;12.80;;;24.80;99.90;;;;;;5052882;28;20424;-92
2022/07/25 07:57:51;;;;;;;14.77;13.18;;;24.80;99.90;;;;;;5054319;28;20041;-94
2022/07/25 08:00:17;;;;;;;15.98;14.30;;;24.80;99.90;;;;;;5043250;28;20394;-92
2022/07/25 08:02:45;;;;;;;17.10;14.70;;;24.80;99.90;;;;;;5024563;28;20053;-93
2022/07/25 08:05:12;;;;;;;15.98;13.73;;;24.80;99.90;;;;;;5056555;28;20055;-92
2022/07/25 08:07:37;;;;;;;16.63;14.13;;;24.90;99.90;;;;;;5056610;28;20037;-92
2022/07/25 08:10:04;;;;;;;16.50;13.48;;;24.90;99.90;;;;;;5031477;28;20080;-94
2022/07/25 08:12:29;;;;;;;14.40;12.90;;;24.90;99.90;;;;;;5016593;28;20040;-93
2022/07/25 08:14:55;;;;;;;14.00;11.68;;;24.90;99.90;;;;;;5031154;28;20049;-91
2022/07/25 08:17:20;;;;;;;15.30;11.93;;;24.90;99.90;;;;;;5052190;28;20044;-91
2022/07/25 08:19:46;;;;;;;13.80;10.80;;;24.80;99.90;;;;;;5051560;28;20049;-93
2022/07/25 08:22:11;;;;;;;12.45;10.55;;;24.80;99.90;;;;;;5051936;28;20482;-92
2022/07/25 08:24:37;;;;;;;12.07;9.85;;;24.70;99.90;;;;;;5053415;28;20033;-94
2022/07/25 08:27:03;;;;;;;11.65;9.27;;;24.60;99.90;;;;;;5034446;28;20107;-94
2022/07/25 08:29:28;;;;;;;11.38;8.48;;;24.60;99.90;;;;;;5052571;28;20128;-93
2022/07/25 08:31:54;;;;;;;11.48;8.88;;;24.70;99.90;;;;;;5052134;28;20120;-95
2022/07/25 08:34:21;;;;;;;10.90;8.50;;;24.70;99.90;;;;;;5053622;28;20426;-93
2022/07/25 08:36:47;;;;;;;11.10;8.40;;;24.80;99.90;;;;;;5052544;28;20045;-95
2022/07/25 08:39:13;;;;;;;10.57;8.00;;;24.90;99.90;;;;;;5054018;28;20079;-94
2022/07/25 08:41:40;;;;;;;10.63;7.80;;;25.00;99.90;;;;;;5052891;28;20055;-93
2022/07/25 08:44:08;;;;;;;11.70;8.60;;;24.90;99.90;;;;;;5018165;28;20048;-95
2022/07/25 08:46:34;;;;;;;10.77;8.30;;;24.90;99.90;;;;;;5036622;28;20041;-95
2022/07/25 08:49:00;;;;;;;11.80;8.27;;;24.90;99.90;;;;;;5039914;28;20045;-95
2022/07/25 08:51:26;;;;;;;9.82;7.90;;;24.80;99.90;;;;;;5056567;28;20094;-94
2022/07/25 08:53:53;;;;;;;9.68;7.68;;;24.70;99.90;;;;;;5050613;28;20103;-92
2022/07/25 08:56:19;;;;;;;12.60;8.50;;;24.60;99.90;;;;;;5051776;28;20052;-92
2022/07/25 08:58:45;;;;;;;10.27;8.10;;;24.50;99.90;;;;;;5050274;28;20041;-91
2022/07/25 09:01:12;;;;;;;11.52;8.18;;;24.50;99.90;;;;;;5034084;28;20044;-92
2022/07/25 09:03:39;;;;;;;11.75;8.93;;;24.40;99.90;;;;;;5034351;28;20095;-91
2022/07/25 09:06:21;;;;;;;9.98;8.25;;;24.30;99.90;;;;;;5031450;28;20479;-91
2022/07/25 09:08:55;;;;;;;10.55;8.13;;;24.30;99.90;;;;;;5032536;28;20051;-92
2022/07/25 09:11:36;;;;;;;10.70;8.52;;;24.40;99.90;;;;;;5050124;28;20052;-91
2022/07/25 09:14:09;;;;;;;10.60;8.00;;;24.30;99.90;;;;;;5015323;28;20036;-92
2022/07/25 09:16:38;;;;;;;11.35;8.93;;;24.40;99.90;;;;;;5034465;28;20037;-90
2022/07/25 09:19:09;;;;;;;10.73;8.48;;;24.40;99.90;;;;;;5029427;28;20084;-91
2022/07/25 09:21:35;;;;;;;11.80;8.52;;;24.50;99.90;;;;;;5033482;28;20045;-92
2022/07/25 09:24:31;;;;;;;11.25;9.18;;;24.50;99.90;;;;;;5032527;28;20053;-91
2022/07/25 09:27:00;;;;;;;10.75;8.50;;;24.50;99.90;;;;;;5029558;28;20065;-91
2022/07/25 09:29:31;;;;;;;12.07;8.90;;;24.60;99.90;;;;;;5033940;28;20050;-95
2022/07/25 09:31:58;;;;;;;11.20;8.27;;;24.70;99.90;;;;;;5051074;28;20045;-92
2022/07/25 09:34:38;;;;;;;10.32;7.70;;;24.70;99.90;;;;;;5050511;28;20118;-95
2022/07/25 09:37:09;;;;;;;9.73;6.65;;;24.70;99.90;;;;;;5033960;28;20049;-93
2022/07/25 09:39:43;;;;;;;8.48;5.80;;;24.70;99.90;;;;;;5031860;28;20398;-94
2022/07/25 09:42:26;;;;;;;7.25;4.03;;;24.70;99.90;;;;;;5031244;28;20046;-94
2022/07/25 09:44:59;;;;;;;8.15;4.10;;;24.70;99.90;;;;;;5013998;28;20072;-92
2022/07/25 09:47:25;;;;;;;7.13;3.55;;;24.70;99.90;;;;;;5032855;28;20052;-94
2022/07/25 09:49:51;;;;;;;7.63;3.75;;;24.70;99.90;;;;;;5032517;28;20394;-93
2022/07/25 09:52:17;;;;;;;7.00;3.20;;;24.70;99.90;;;;;;5032698;28;20056;-92
2022/07/25 09:54:42;;;;;;;6.40;3.22;;;24.70;99.90;;;;;;5049688;28;20047;-94
2022/07/25 09:57:08;;;;;;;6.40;3.40;;;24.90;99.90;;;;;;5017102;28;20045;-95
2022/07/25 09:59:36;;;;;;;6.10;3.08;;;25.00;99.90;;;;;;5016502;28;20053;-94
2022/07/25 10:02:26;;;;;;;5.25;2.60;;;24.90;99.90;;;;;;5051342;28;20246;-93
2022/07/25 10:05:13;;;;;;;5.35;2.55;;;24.80;99.90;;;;;;5050832;28;20036;-96
2022/07/25 10:07:48;;;;;;;6.32;2.63;;;24.80;99.90;;;;;;5052071;28;20044;-93
2022/07/25 10:10:27;;;;;;;5.90;2.50;;;24.70;99.90;;;;;;5030785;28;20041;-93
2022/07/25 10:13:06;;;;;;;4.97;2.40;;;24.70;99.90;;;;;;5016333;28;20056;-93
2022/07/25 10:15:48;;;;;;;6.72;2.78;;;24.60;99.90;;;;;;5015982;28;20037;-93
2022/07/25 10:18:17;;;;;;;5.88;2.80;;;24.60;99.90;;;;;;5050383;28;20366;-92
2022/07/25 10:20:44;;;;;;;8.35;2.90;;;24.70;99.90;;;;;;5032871;28;20083;-91
2022/07/25 10:23:27;;;;;;;5.38;2.65;;;24.70;99.90;;;;;;5033092;28;20049;-93
2022/07/25 10:26:14;;;;;;;6.38;2.92;;;24.80;99.90;;;;;;5045358;28;20067;-92
2022/07/25 10:28:42;;;;;;;5.78;2.88;;;24.90;99.90;;;;;;5033477;28;20052;-91
2022/07/25 10:31:20;;;;;;;6.28;2.90;;;25.00;99.90;;;;;;5015089;28;20052;-92
2022/07/25 10:34:01;;;;;;;6.68;2.88;;;25.10;99.90;;;;;;5049398;28;20442;-94
2022/07/25 10:36:30;;;;;;;;;;;25.20;99.90;;;;;;5051349;28;20102;-92
2022/07/25 10:38:58;;;;;;;5.53;2.38;;;25.00;99.90;;;;;;5033122;28;20128;-95
2022/07/25 10:41:25;;;;;;;3.90;2.10;;;25.20;99.90;;;;;;5052084;28;20041;-95
2022/07/25 10:43:51;;;;;;;6.13;2.03;;;25.00;99.90;;;;;;5036087;28;20098;-94
2022/07/25 10:46:18;;;;;;;7.13;2.20;;;24.90;99.90;;;;;;5054975;28;20132;-96
2022/07/25 10:48:44;;;;;;;4.25;1.80;;;24.90;99.90;;;;;;5037867;28;20049;-96
2022/07/25 10:51:12;;;;;;;4.32;1.75;;;24.80;99.90;;;;;;5038589;28;20462;-94
2022/07/25 10:53:47;;;;;;;3.72;1.50;;;24.70;99.90;;;;;;5020111;28;20123;-93
2022/07/25 10:56:22;;;;;;;7.80;1.75;;;24.60;99.90;;;;;;5051956;28;20040;-96
2022/07/25 10:58:52;;;;;;;5.35;1.48;;;24.40;99.90;;;;;;5053094;28;20124;-90
2022/07/25 11:01:40;;;;;;;4.18;1.40;;;24.50;99.90;;;;;;5047535;28;20165;-92
2022/07/25 11:04:14;;;;;;;3.90;1.50;;;24.40;99.90;;;;;;5014594;28;20049;-91
2022/07/25 11:06:41;;;;;;;3.13;1.15;;;24.30;99.90;;;;;;5031173;28;20045;-92
2022/07/25 11:09:19;;;;;;;5.63;1.88;;;24.20;99.90;;;;;;5035137;28;20049;-91
2022/07/25 11:11:47;;;;;;;5.47;1.50;;;24.20;99.90;;;;;;5034877;28;20045;-90
2022/07/25 11:14:31;;;;;;;5.53;2.00;;;24.10;99.90;;;;;;5035707;28;20044;-93
2022/07/25 11:17:09;;;;;;;5.22;1.70;;;24.10;99.90;;;;;;5014587;28;20052;-91
2022/07/25 11:19:35;;;;;;;5.53;1.90;;;24.10;99.90;;;;;;5033069;28;20065;-91
2022/07/25 11:22:03;;;;;;;4.65;2.10;;;24.10;99.90;;;;;;5032496;28;20996;-90
2022/07/25 11:24:41;;;;;;;6.60;2.10;;;24.10;99.90;;;;;;5029901;28;20036;-94
2022/07/25 11:27:09;;;;;;;7.20;2.58;;;24.00;99.90;;;;;;5035906;28;20394;-90
2022/07/25 11:29:36;;;;;;;6.38;2.20;;;24.00;99.90;;;;;;5018632;28;20033;-94
2022/07/25 11:32:07;;;;;;;7.28;2.60;;;23.90;99.90;;;;;;5035532;28;20057;-93
2022/07/25 11:34:37;;;;;;;8.20;2.67;;;24.20;99.90;;;;;;5053284;28;20047;-90
2022/07/25 11:37:05;;;;;;;6.43;2.40;;;24.20;99.90;;;;;;5052538;28;20071;-91
2022/07/25 11:39:34;;;;;;;8.48;2.70;;;24.20;99.90;;;;;;5033704;28;20051;-89
2022/07/25 11:42:15;;;;;;;6.35;2.65;;;24.10;99.90;;;;;;5034984;28;20076;-91
2022/07/25 11:44:48;;;;;;;7.63;2.72;;;24.20;99.90;;;;;;5034924;28;20048;-91
2022/07/25 11:47:32;;;;;;;6.45;2.53;;;24.30;99.90;;;;;;5035853;28;20111;-90
2022/07/25 11:50:03;;;;;;;7.65;2.78;;;24.30;99.90;;;;;;5051473;28;20123;-91
2022/07/25 11:52:36;;;;;;;8.27;2.90;;;24.20;99.90;;;;;;5018175;28;20049;-92
2022/07/25 11:55:07;;;;;;;8.27;2.90;;;24.20;99.90;;;;;;5017493;28;20079;-89
2022/07/25 11:57:39;;;;;;;9.85;2.95;;;24.10;99.90;;;;;;5035494;28;20037;-92
2022/07/25 12:00:10;;;;;;;7.00;2.67;;;24.10;99.90;;;;;;5034171;28;20433;-92
2022/07/25 12:02:36;;;;;;;11.15;3.53;;;24.30;99.90;;;;;;5051687;28;20056;-92
2022/07/25 12:05:11;;;;;;;8.57;3.03;;;24.30;99.90;;;;;;5034739;28;20137;-94
2022/07/25 12:07:48;;;;;;;7.75;3.08;;;24.40;99.90;;;;;;5035114;28;20045;-94
2022/07/25 12:10:20;;;;;;;7.95;2.90;;;24.40;99.90;;;;;;5037039;28;20049;-95
2022/07/25 12:12:48;;;;;;;8.35;3.00;;;24.40;99.90;;;;;;5034694;28;20082;-93
2022/07/25 12:15:15;;;;;;;6.82;3.05;;;24.40;99.90;;;;;;5035231;28;20049;-92
2022/07/25 12:17:42;;;;;;;9.70;3.25;;;24.30;99.90;;;;;;5019924;28;20119;-92
2022/07/25 12:20:17;;;;;;;6.95;3.45;;;24.20;99.90;;;;;;5033590;28;20053;-91
2022/07/25 12:22:42;;;;;;;7.70;3.40;;;24.20;99.90;;;;;;5032013;28;20367;-93
2022/07/25 12:25:09;;;;;;;9.18;2.63;;;24.20;99.90;;;;;;5017341;28;20051;-93
2022/07/25 12:27:35;;;;;;;8.10;2.70;;;24.10;99.90;;;;;;5052349;28;20113;-92
2022/07/25 12:30:01;;;;;;;6.85;2.80;;;24.10;99.90;;;;;;5032947;28;20045;-91
2022/07/25 12:32:26;;;;;;;10.95;3.05;;;24.00;99.90;;;;;;5052540;28;20045;-91
2022/07/25 12:34:52;;;;;;;8.65;2.67;;;24.10;99.90;;;;;;5049511;28;20049;-89
2022/07/25 12:37:20;;;;;;;8.30;2.70;;;24.10;99.90;;;;;;5028662;28;20392;-90
2022/07/25 12:39:46;;;;;;;6.55;2.25;;;24.10;99.90;;;;;;5046923;28;20049;-91